sensor_id;sensor_type;location;lat;lon;timestamp;P1;durP1;ratioP1;P2;durP2;ratioP2
64291;SDS011;50628;51.008;13.658;2023-07-24T00:00:19;6.63;;;2.78;;
64291;SDS011;50628;51.008;13.658;2023-07-24T00:05:21;4.25;;;2.65;;
64291;SDS011;50628;51.008;13.658;2023-07-24T00:10:24;3.88;;;2.67;;
64291;SDS011;50628;51.008;13.658;2023-07-24T00:15:26;5.38;;;2.53;;
64291;SDS011;50628;51.008;13.658;2023-07-24T00:20:28;6.85;;;2.60;;
64291;SDS011;50628;51.008;13.658;2023-07-24T00:25:31;3.90;;;2.08;;
64291;SDS011;50628;51.008;13.658;2023-07-24T00:30:33;5.70;;;2.50;;
64291;SDS011;50628;51.008;13.658;2023-07-24T00:35:35;2.67;;;2.20;;
64291;SDS011;50628;51.008;13.658;2023-07-24T00:40:38;3.13;;;2.33;;
64291;SDS011;50628;51.008;13.658;2023-07-24T00:45:40;3.15;;;2.70;;
64291;SDS011;50628;51.008;13.658;2023-07-24T00:50:42;2.78;;;2.30;;
64291;SDS011;50628;51.008;13.658;2023-07-24T00:55:46;4.43;;;2.65;;
64291;SDS011;50628;51.008;13.658;2023-07-24T01:00:48;2.58;;;2.38;;
64291;SDS011;50628;51.008;13.658;2023-07-24T01:05:51;3.05;;;2.38;;
64291;SDS011;50628;51.008;13.658;2023-07-24T01:10:57;4.38;;;2.13;;
64291;SDS011;50628;51.008;13.658;2023-07-24T01:16:07;4.60;;;2.40;;
64291;SDS011;50628;51.008;13.658;2023-07-24T01:21:14;3.35;;;2.50;;
64291;SDS011;50628;51.008;13.658;2023-07-24T01:26:23;9.68;;;3.05;;
64291;SDS011;50628;51.008;13.658;2023-07-24T01:31:25;4.03;;;2.55;;
64291;SDS011;50628;51.008;13.658;2023-07-24T01:36:27;4.80;;;2.47;;
64291;SDS011;50628;51.008;13.658;2023-07-24T01:41:30;5.38;;;2.63;;
64291;SDS011;50628;51.008;13.658;2023-07-24T01:46:32;3.33;;;2.47;;
64291;SDS011;50628;51.008;13.658;2023-07-24T01:51:34;3.08;;;2.60;;
64291;SDS011;50628;51.008;13.658;2023-07-24T01:56:39;3.45;;;2.58;;
64291;SDS011;50628;51.008;13.658;2023-07-24T02:01:41;4.85;;;2.40;;
64291;SDS011;50628;51.008;13.658;2023-07-24T02:06:43;2.90;;;2.60;;
64291;SDS011;50628;51.008;13.658;2023-07-24T02:11:46;3.47;;;2.42;;
64291;SDS011;50628;51.008;13.658;2023-07-24T02:16:48;4.90;;;2.38;;
64291;SDS011;50628;51.008;13.658;2023-07-24T02:21:50;3.83;;;2.58;;
64291;SDS011;50628;51.008;13.658;2023-07-24T02:26:53;5.00;;;2.45;;
64291;SDS011;50628;51.008;13.658;2023-07-24T02:31:55;2.50;;;2.10;;
64291;SDS011;50628;51.008;13.658;2023-07-24T02:36:57;2.78;;;2.42;;
64291;SDS011;50628;51.008;13.658;2023-07-24T02:42:00;3.47;;;2.65;;
64291;SDS011;50628;51.008;13.658;2023-07-24T02:47:02;4.85;;;2.80;;
64291;SDS011;50628;51.008;13.658;2023-07-24T02:52:05;5.72;;;2.63;;
64291;SDS011;50628;51.008;13.658;2023-07-24T02:57:08;2.67;;;2.47;;
64291;SDS011;50628;51.008;13.658;2023-07-24T03:02:10;2.42;;;2.20;;
64291;SDS011;50628;51.008;13.658;2023-07-24T03:07:12;5.20;;;3.22;;
64291;SDS011;50628;51.008;13.658;2023-07-24T03:12:15;3.13;;;2.53;;
64291;SDS011;50628;51.008;13.658;2023-07-24T03:17:17;4.65;;;3.03;;
64291;SDS011;50628;51.008;13.658;2023-07-24T03:22:19;5.00;;;2.58;;
64291;SDS011;50628;51.008;13.658;2023-07-24T03:27:22;6.30;;;3.83;;
64291;SDS011;50628;51.008;13.658;2023-07-24T03:32:24;10.73;;;4.13;;
64291;SDS011;50628;51.008;13.658;2023-07-24T03:37:26;12.73;;;6.53;;
64291;SDS011;50628;51.008;13.658;2023-07-24T03:42:30;10.60;;;3.72;;
64291;SDS011;50628;51.008;13.658;2023-07-24T03:47:33;12.98;;;4.30;;
64291;SDS011;50628;51.008;13.658;2023-07-24T03:52:35;13.80;;;4.13;;
64291;SDS011;50628;51.008;13.658;2023-07-24T03:57:38;7.15;;;3.47;;
64291;SDS011;50628;51.008;13.658;2023-07-24T04:02:40;5.63;;;3.13;;
64291;SDS011;50628;51.008;13.658;2023-07-24T04:07:42;7.25;;;2.92;;
64291;SDS011;50628;51.008;13.658;2023-07-24T04:12:45;4.07;;;2.72;;
64291;SDS011;50628;51.008;13.658;2023-07-24T04:17:47;5.85;;;2.85;;
64291;SDS011;50628;51.008;13.658;2023-07-24T04:22:49;9.23;;;3.70;;
64291;SDS011;50628;51.008;13.658;2023-07-24T04:27:52;5.35;;;3.33;;
64291;SDS011;50628;51.008;13.658;2023-07-24T04:32:54;4.10;;;3.10;;
64291;SDS011;50628;51.008;13.658;2023-07-24T04:37:55;12.10;;;3.85;;
64291;SDS011;50628;51.008;13.658;2023-07-24T04:42:59;7.05;;;4.32;;
64291;SDS011;50628;51.008;13.658;2023-07-24T04:48:01;9.07;;;3.78;;
64291;SDS011;50628;51.008;13.658;2023-07-24T04:53:03;11.05;;;3.90;;
64291;SDS011;50628;51.008;13.658;2023-07-24T04:58:06;5.53;;;3.40;;
64291;SDS011;50628;51.008;13.658;2023-07-24T05:03:08;3.42;;;2.88;;
64291;SDS011;50628;51.008;13.658;2023-07-24T05:08:11;5.45;;;2.72;;
64291;SDS011;50628;51.008;13.658;2023-07-24T05:13:14;4.25;;;3.53;;
64291;SDS011;50628;51.008;13.658;2023-07-24T05:18:16;6.93;;;2.80;;
64291;SDS011;50628;51.008;13.658;2023-07-24T05:23:18;8.18;;;3.03;;
64291;SDS011;50628;51.008;13.658;2023-07-24T05:28:21;3.72;;;2.88;;
64291;SDS011;50628;51.008;13.658;2023-07-24T05:33:23;3.45;;;2.90;;
64291;SDS011;50628;51.008;13.658;2023-07-24T05:38:25;5.53;;;3.47;;
64291;SDS011;50628;51.008;13.658;2023-07-24T05:43:28;6.78;;;3.45;;
64291;SDS011;50628;51.008;13.658;2023-07-24T05:48:31;5.85;;;3.17;;
64291;SDS011;50628;51.008;13.658;2023-07-24T05:53:33;3.85;;;3.17;;
64291;SDS011;50628;51.008;13.658;2023-07-24T05:58:36;5.13;;;3.47;;
64291;SDS011;50628;51.008;13.658;2023-07-24T06:03:38;4.55;;;2.97;;
64291;SDS011;50628;51.008;13.658;2023-07-24T06:08:40;6.28;;;3.50;;
64291;SDS011;50628;51.008;13.658;2023-07-24T06:13:43;6.78;;;3.53;;
64291;SDS011;50628;51.008;13.658;2023-07-24T06:18:45;4.53;;;3.08;;
64291;SDS011;50628;51.008;13.658;2023-07-24T06:23:47;5.63;;;3.42;;
64291;SDS011;50628;51.008;13.658;2023-07-24T06:28:50;4.32;;;3.25;;
64291;SDS011;50628;51.008;13.658;2023-07-24T06:33:52;5.72;;;3.63;;
64291;SDS011;50628;51.008;13.658;2023-07-24T06:38:53;5.57;;;3.40;;
64291;SDS011;50628;51.008;13.658;2023-07-24T06:43:57;4.57;;;4.00;;
64291;SDS011;50628;51.008;13.658;2023-07-24T06:48:59;4.45;;;3.42;;
64291;SDS011;50628;51.008;13.658;2023-07-24T06:54:01;9.50;;;3.72;;
64291;SDS011;50628;51.008;13.658;2023-07-24T06:59:04;6.22;;;3.65;;
64291;SDS011;50628;51.008;13.658;2023-07-24T07:04:06;3.92;;;3.05;;
64291;SDS011;50628;51.008;13.658;2023-07-24T07:09:08;5.05;;;3.72;;
64291;SDS011;50628;51.008;13.658;2023-07-24T07:14:11;5.68;;;3.88;;
64291;SDS011;50628;51.008;13.658;2023-07-24T07:19:13;5.13;;;3.50;;
64291;SDS011;50628;51.008;13.658;2023-07-24T07:24:15;4.97;;;3.25;;
64291;SDS011;50628;51.008;13.658;2023-07-24T07:29:18;8.65;;;3.00;;
64291;SDS011;50628;51.008;13.658;2023-07-24T07:34:20;3.28;;;2.97;;
64291;SDS011;50628;51.008;13.658;2023-07-24T07:39:22;6.10;;;3.45;;
64291;SDS011;50628;51.008;13.658;2023-07-24T07:44:25;6.15;;;3.60;;
64291;SDS011;50628;51.008;13.658;2023-07-24T07:49:27;4.47;;;3.10;;
64291;SDS011;50628;51.008;13.658;2023-07-24T07:54:28;5.68;;;3.38;;
64291;SDS011;50628;51.008;13.658;2023-07-24T07:59:32;3.60;;;3.30;;
64291;SDS011;50628;51.008;13.658;2023-07-24T08:04:35;5.03;;;3.55;;
64291;SDS011;50628;51.008;13.658;2023-07-24T08:09:37;3.47;;;3.17;;
64291;SDS011;50628;51.008;13.658;2023-07-24T08:14:40;5.80;;;3.35;;
64291;SDS011;50628;51.008;13.658;2023-07-24T08:19:42;4.95;;;3.90;;
64291;SDS011;50628;51.008;13.658;2023-07-24T08:24:44;6.35;;;4.05;;
64291;SDS011;50628;51.008;13.658;2023-07-24T08:29:47;5.30;;;3.75;;
64291;SDS011;50628;51.008;13.658;2023-07-24T08:34:52;4.30;;;3.78;;
64291;SDS011;50628;51.008;13.658;2023-07-24T08:39:54;6.43;;;4.15;;
64291;SDS011;50628;51.008;13.658;2023-07-24T08:44:57;4.82;;;4.03;;
64291;SDS011;50628;51.008;13.658;2023-07-24T08:50:00;6.20;;;4.55;;
64291;SDS011;50628;51.008;13.658;2023-07-24T08:55:02;4.70;;;4.20;;
64291;SDS011;50628;51.008;13.658;2023-07-24T09:00:08;5.82;;;4.68;;
64291;SDS011;50628;51.008;13.658;2023-07-24T09:05:10;6.57;;;5.13;;
64291;SDS011;50628;51.008;13.658;2023-07-24T09:10:14;5.57;;;4.60;;
64291;SDS011;50628;51.008;13.658;2023-07-24T09:15:18;6.18;;;5.57;;
64291;SDS011;50628;51.008;13.658;2023-07-24T09:20:20;9.95;;;6.55;;
64291;SDS011;50628;51.008;13.658;2023-07-24T09:25:29;7.47;;;5.20;;
64291;SDS011;50628;51.008;13.658;2023-07-24T09:30:33;8.35;;;6.20;;
64291;SDS011;50628;51.008;13.658;2023-07-24T09:35:35;8.32;;;5.88;;
64291;SDS011;50628;51.008;13.658;2023-07-24T09:40:37;9.65;;;6.10;;
64291;SDS011;50628;51.008;13.658;2023-07-24T09:45:43;6.13;;;5.07;;
64291;SDS011;50628;51.008;13.658;2023-07-24T09:50:45;6.75;;;5.00;;
64291;SDS011;50628;51.008;13.658;2023-07-24T09:55:49;5.80;;;3.97;;
64291;SDS011;50628;51.008;13.658;2023-07-24T10:00:58;8.85;;;4.78;;
64291;SDS011;50628;51.008;13.658;2023-07-24T10:06:01;8.73;;;4.65;;
64291;SDS011;50628;51.008;13.658;2023-07-24T10:11:03;12.98;;;4.60;;
64291;SDS011;50628;51.008;13.658;2023-07-24T10:16:07;6.32;;;4.38;;
64291;SDS011;50628;51.008;13.658;2023-07-24T10:21:10;6.20;;;4.55;;
64291;SDS011;50628;51.008;13.658;2023-07-24T10:26:12;5.57;;;4.78;;
64291;SDS011;50628;51.008;13.658;2023-07-24T10:31:21;6.85;;;5.45;;
64291;SDS011;50628;51.008;13.658;2023-07-24T10:36:26;7.13;;;4.82;;
64291;SDS011;50628;51.008;13.658;2023-07-24T10:41:35;7.20;;;5.38;;
64291;SDS011;50628;51.008;13.658;2023-07-24T10:46:39;6.68;;;5.28;;
64291;SDS011;50628;51.008;13.658;2023-07-24T10:51:42;6.82;;;5.63;;
64291;SDS011;50628;51.008;13.658;2023-07-24T10:56:44;7.75;;;5.50;;
64291;SDS011;50628;51.008;13.658;2023-07-24T11:01:47;5.50;;;4.95;;
64291;SDS011;50628;51.008;13.658;2023-07-24T11:06:52;6.13;;;5.22;;
64291;SDS011;50628;51.008;13.658;2023-07-24T11:11:54;7.70;;;4.97;;
64291;SDS011;50628;51.008;13.658;2023-07-24T11:16:57;6.72;;;5.22;;
64291;SDS011;50628;51.008;13.658;2023-07-24T11:21:59;9.00;;;5.93;;
64291;SDS011;50628;51.008;13.658;2023-07-24T11:27:08;7.95;;;5.68;;
64291;SDS011;50628;51.008;13.658;2023-07-24T11:32:12;7.90;;;5.47;;
64291;SDS011;50628;51.008;13.658;2023-07-24T11:37:13;6.95;;;5.65;;
64291;SDS011;50628;51.008;13.658;2023-07-24T11:42:16;8.10;;;5.78;;
64291;SDS011;50628;51.008;13.658;2023-07-24T11:47:20;7.60;;;5.63;;
64291;SDS011;50628;51.008;13.658;2023-07-24T11:52:22;7.60;;;5.40;;
64291;SDS011;50628;51.008;13.658;2023-07-24T11:57:24;6.18;;;5.15;;
64291;SDS011;50628;51.008;13.658;2023-07-24T12:02:27;8.82;;;6.43;;
64291;SDS011;50628;51.008;13.658;2023-07-24T12:07:30;10.27;;;6.15;;
64291;SDS011;50628;51.008;13.658;2023-07-24T12:12:36;8.00;;;5.55;;
64291;SDS011;50628;51.008;13.658;2023-07-24T12:17:43;10.23;;;5.78;;
64291;SDS011;50628;51.008;13.658;2023-07-24T12:22:45;8.27;;;6.28;;
64291;SDS011;50628;51.008;13.658;2023-07-24T12:27:48;10.73;;;6.82;;
64291;SDS011;50628;51.008;13.658;2023-07-24T12:32:52;6.90;;;6.07;;
64291;SDS011;50628;51.008;13.658;2023-07-24T12:37:54;10.25;;;6.88;;
64291;SDS011;50628;51.008;13.658;2023-07-24T12:42:56;14.38;;;7.80;;
64291;SDS011;50628;51.008;13.658;2023-07-24T12:47:59;11.65;;;7.57;;
64291;SDS011;50628;51.008;13.658;2023-07-24T12:53:01;8.48;;;6.45;;
64291;SDS011;50628;51.008;13.658;2023-07-24T12:58:02;18.92;;;7.68;;
64291;SDS011;50628;51.008;13.658;2023-07-24T13:03:06;10.98;;;6.88;;
64291;SDS011;50628;51.008;13.658;2023-07-24T13:08:07;9.93;;;6.60;;
64291;SDS011;50628;51.008;13.658;2023-07-24T13:13:09;9.15;;;6.60;;
64291;SDS011;50628;51.008;13.658;2023-07-24T13:18:12;11.32;;;6.47;;
64291;SDS011;50628;51.008;13.658;2023-07-24T13:23:16;10.70;;;7.10;;
64291;SDS011;50628;51.008;13.658;2023-07-24T13:28:18;10.07;;;6.43;;
64291;SDS011;50628;51.008;13.658;2023-07-24T13:33:22;8.80;;;5.88;;
64291;SDS011;50628;51.008;13.658;2023-07-24T13:38:23;9.73;;;6.32;;
64291;SDS011;50628;51.008;13.658;2023-07-24T13:43:25;7.00;;;5.75;;
64291;SDS011;50628;51.008;13.658;2023-07-24T13:48:29;4.63;;;4.05;;
64291;SDS011;50628;51.008;13.658;2023-07-24T13:53:31;4.80;;;3.65;;
64291;SDS011;50628;51.008;13.658;2023-07-24T13:58:33;3.83;;;3.38;;
64291;SDS011;50628;51.008;13.658;2023-07-24T14:03:36;4.93;;;3.25;;
64291;SDS011;50628;51.008;13.658;2023-07-24T14:08:38;2.72;;;2.35;;
64291;SDS011;50628;51.008;13.658;2023-07-24T14:13:40;3.88;;;2.72;;
64291;SDS011;50628;51.008;13.658;2023-07-24T14:18:43;3.17;;;2.38;;
64291;SDS011;50628;51.008;13.658;2023-07-24T14:23:45;3.35;;;3.05;;
64291;SDS011;50628;51.008;13.658;2023-07-24T14:28:47;6.28;;;3.75;;
64291;SDS011;50628;51.008;13.658;2023-07-24T14:33:50;5.55;;;3.80;;
64291;SDS011;50628;51.008;13.658;2023-07-24T14:38:52;5.53;;;4.28;;
64291;SDS011;50628;51.008;13.658;2023-07-24T14:43:54;6.53;;;4.38;;
64291;SDS011;50628;51.008;13.658;2023-07-24T14:48:57;5.07;;;4.20;;
64291;SDS011;50628;51.008;13.658;2023-07-24T14:53:59;7.78;;;5.00;;
64291;SDS011;50628;51.008;13.658;2023-07-24T14:59:01;8.48;;;4.70;;
64291;SDS011;50628;51.008;13.658;2023-07-24T15:04:04;6.53;;;4.72;;
64291;SDS011;50628;51.008;13.658;2023-07-24T15:09:06;6.03;;;4.65;;
64291;SDS011;50628;51.008;13.658;2023-07-24T15:14:08;5.93;;;4.78;;
64291;SDS011;50628;51.008;13.658;2023-07-24T15:19:11;5.00;;;4.38;;
64291;SDS011;50628;51.008;13.658;2023-07-24T15:24:13;6.72;;;4.90;;
64291;SDS011;50628;51.008;13.658;2023-07-24T15:29:17;5.47;;;4.97;;
64291;SDS011;50628;51.008;13.658;2023-07-24T15:34:20;7.75;;;5.95;;
64291;SDS011;50628;51.008;13.658;2023-07-24T15:39:22;6.70;;;5.18;;
64291;SDS011;50628;51.008;13.658;2023-07-24T15:44:24;7.63;;;5.80;;
64291;SDS011;50628;51.008;13.658;2023-07-24T15:49:27;10.07;;;6.30;;
64291;SDS011;50628;51.008;13.658;2023-07-24T15:54:29;6.97;;;5.93;;
64291;SDS011;50628;51.008;13.658;2023-07-24T15:59:31;7.80;;;5.82;;
64291;SDS011;50628;51.008;13.658;2023-07-24T16:04:35;7.93;;;5.63;;
64291;SDS011;50628;51.008;13.658;2023-07-24T16:09:36;6.05;;;5.25;;
64291;SDS011;50628;51.008;13.658;2023-07-24T16:14:38;6.55;;;5.82;;
64291;SDS011;50628;51.008;13.658;2023-07-24T16:19:42;7.25;;;6.00;;
64291;SDS011;50628;51.008;13.658;2023-07-24T16:24:43;9.27;;;6.35;;
64291;SDS011;50628;51.008;13.658;2023-07-24T16:29:45;8.07;;;6.80;;
64291;SDS011;50628;51.008;13.658;2023-07-24T16:34:49;9.68;;;7.80;;
64291;SDS011;50628;51.008;13.658;2023-07-24T16:39:51;9.07;;;6.30;;
64291;SDS011;50628;51.008;13.658;2023-07-24T16:44:53;8.18;;;7.28;;
64291;SDS011;50628;51.008;13.658;2023-07-24T16:49:56;7.70;;;6.78;;
64291;SDS011;50628;51.008;13.658;2023-07-24T16:54:58;8.80;;;6.78;;
64291;SDS011;50628;51.008;13.658;2023-07-24T17:00:00;8.55;;;6.95;;
64291;SDS011;50628;51.008;13.658;2023-07-24T17:05:04;9.15;;;6.78;;
64291;SDS011;50628;51.008;13.658;2023-07-24T17:10:06;8.40;;;7.22;;
64291;SDS011;50628;51.008;13.658;2023-07-24T17:15:09;9.05;;;6.90;;
64291;SDS011;50628;51.008;13.658;2023-07-24T17:20:13;9.48;;;7.47;;
64291;SDS011;50628;51.008;13.658;2023-07-24T17:25:15;8.13;;;7.05;;
64291;SDS011;50628;51.008;13.658;2023-07-24T17:30:16;8.20;;;6.70;;
64291;SDS011;50628;51.008;13.658;2023-07-24T17:35:20;11.05;;;7.63;;
64291;SDS011;50628;51.008;13.658;2023-07-24T17:40:22;10.07;;;7.45;;
64291;SDS011;50628;51.008;13.658;2023-07-24T17:45:24;8.55;;;6.43;;
64291;SDS011;50628;51.008;13.658;2023-07-24T17:50:28;8.05;;;6.55;;
64291;SDS011;50628;51.008;13.658;2023-07-24T17:55:31;8.80;;;6.53;;
64291;SDS011;50628;51.008;13.658;2023-07-24T18:00:32;10.50;;;6.75;;
64291;SDS011;50628;51.008;13.658;2023-07-24T18:05:36;8.13;;;7.13;;
64291;SDS011;50628;51.008;13.658;2023-07-24T18:10:38;7.57;;;6.60;;
64291;SDS011;50628;51.008;13.658;2023-07-24T18:15:40;9.35;;;7.20;;
64291;SDS011;50628;51.008;13.658;2023-07-24T18:20:43;8.43;;;6.50;;
64291;SDS011;50628;51.008;13.658;2023-07-24T18:25:45;9.68;;;6.60;;
64291;SDS011;50628;51.008;13.658;2023-07-24T18:30:46;8.85;;;6.72;;
64291;SDS011;50628;51.008;13.658;2023-07-24T18:35:50;10.20;;;6.70;;
64291;SDS011;50628;51.008;13.658;2023-07-24T18:40:52;7.28;;;6.53;;
64291;SDS011;50628;51.008;13.658;2023-07-24T18:45:54;8.70;;;6.65;;
64291;SDS011;50628;51.008;13.658;2023-07-24T18:50:58;9.88;;;6.60;;
64291;SDS011;50628;51.008;13.658;2023-07-24T18:56:00;6.93;;;6.20;;
64291;SDS011;50628;51.008;13.658;2023-07-24T19:01:02;11.25;;;7.10;;
64291;SDS011;50628;51.008;13.658;2023-07-24T19:06:05;6.03;;;2.83;;
64291;SDS011;50628;51.008;13.658;2023-07-24T19:11:08;11.52;;;2.00;;
64291;SDS011;50628;51.008;13.658;2023-07-24T19:16:10;7.45;;;1.90;;
64291;SDS011;50628;51.008;13.658;2023-07-24T19:21:13;6.65;;;1.60;;
64291;SDS011;50628;51.008;13.658;2023-07-24T19:26:15;1.90;;;1.48;;
64291;SDS011;50628;51.008;13.658;2023-07-24T19:31:17;5.32;;;1.65;;
64291;SDS011;50628;51.008;13.658;2023-07-24T19:36:21;5.20;;;1.42;;
64291;SDS011;50628;51.008;13.658;2023-07-24T19:41:23;6.85;;;1.80;;
64291;SDS011;50628;51.008;13.658;2023-07-24T19:46:24;7.38;;;2.45;;
64291;SDS011;50628;51.008;13.658;2023-07-24T19:51:28;4.72;;;2.05;;
64291;SDS011;50628;51.008;13.658;2023-07-24T19:56:30;7.43;;;2.83;;
64291;SDS011;50628;51.008;13.658;2023-07-24T20:01:32;7.40;;;2.70;;
64291;SDS011;50628;51.008;13.658;2023-07-24T20:06:35;8.45;;;2.50;;
64291;SDS011;50628;51.008;13.658;2023-07-24T20:11:37;4.72;;;2.10;;
64291;SDS011;50628;51.008;13.658;2023-07-24T20:16:39;4.18;;;1.88;;
64291;SDS011;50628;51.008;13.658;2023-07-24T20:21:42;4.40;;;1.65;;
64291;SDS011;50628;51.008;13.658;2023-07-24T20:26:44;5.55;;;1.75;;
64291;SDS011;50628;51.008;13.658;2023-07-24T20:31:46;6.10;;;1.83;;
64291;SDS011;50628;51.008;13.658;2023-07-24T20:36:49;5.28;;;2.03;;
64291;SDS011;50628;51.008;13.658;2023-07-24T20:41:51;6.63;;;1.67;;
64291;SDS011;50628;51.008;13.658;2023-07-24T20:46:53;5.25;;;1.83;;
64291;SDS011;50628;51.008;13.658;2023-07-24T20:51:56;7.25;;;2.97;;
64291;SDS011;50628;51.008;13.658;2023-07-24T20:56:58;4.35;;;2.58;;
64291;SDS011;50628;51.008;13.658;2023-07-24T21:02:00;5.95;;;2.58;;
64291;SDS011;50628;51.008;13.658;2023-07-24T21:07:04;4.82;;;2.22;;
64291;SDS011;50628;51.008;13.658;2023-07-24T21:12:09;5.95;;;2.50;;
64291;SDS011;50628;51.008;13.658;2023-07-24T21:17:11;2.78;;;1.55;;
64291;SDS011;50628;51.008;13.658;2023-07-24T21:22:15;2.10;;;1.60;;
64291;SDS011;50628;51.008;13.658;2023-07-24T21:27:16;4.55;;;1.90;;
64291;SDS011;50628;51.008;13.658;2023-07-24T21:32:18;3.80;;;1.92;;
64291;SDS011;50628;51.008;13.658;2023-07-24T21:37:21;4.43;;;2.67;;
64291;SDS011;50628;51.008;13.658;2023-07-24T21:42:23;5.53;;;2.83;;
64291;SDS011;50628;51.008;13.658;2023-07-24T21:47:25;4.35;;;2.88;;
64291;SDS011;50628;51.008;13.658;2023-07-24T21:52:29;4.97;;;2.83;;
64291;SDS011;50628;51.008;13.658;2023-07-24T21:57:31;3.03;;;2.28;;
64291;SDS011;50628;51.008;13.658;2023-07-24T22:02:33;3.28;;;2.35;;
64291;SDS011;50628;51.008;13.658;2023-07-24T22:07:36;3.15;;;1.45;;
64291;SDS011;50628;51.008;13.658;2023-07-24T22:12:38;5.45;;;2.40;;
64291;SDS011;50628;51.008;13.658;2023-07-24T22:17:40;3.33;;;2.17;;
64291;SDS011;50628;51.008;13.658;2023-07-24T22:22:43;3.15;;;2.20;;
64291;SDS011;50628;51.008;13.658;2023-07-24T22:27:45;4.28;;;2.42;;
64291;SDS011;50628;51.008;13.658;2023-07-24T22:32:46;2.33;;;2.10;;
64291;SDS011;50628;51.008;13.658;2023-07-24T22:37:50;2.60;;;1.77;;
64291;SDS011;50628;51.008;13.658;2023-07-24T22:42:52;3.22;;;2.13;;
64291;SDS011;50628;51.008;13.658;2023-07-24T22:47:53;2.50;;;1.83;;
64291;SDS011;50628;51.008;13.658;2023-07-24T22:52:58;5.10;;;2.00;;
64291;SDS011;50628;51.008;13.658;2023-07-24T22:57:59;5.00;;;1.80;;
64291;SDS011;50628;51.008;13.658;2023-07-24T23:03:01;3.00;;;2.33;;
64291;SDS011;50628;51.008;13.658;2023-07-24T23:08:05;2.08;;;1.63;;
64291;SDS011;50628;51.008;13.658;2023-07-24T23:13:07;2.47;;;2.05;;
64291;SDS011;50628;51.008;13.658;2023-07-24T23:18:08;5.85;;;2.10;;
64291;SDS011;50628;51.008;13.658;2023-07-24T23:23:12;2.38;;;1.65;;
64291;SDS011;50628;51.008;13.658;2023-07-24T23:28:13;3.88;;;2.50;;
64291;SDS011;50628;51.008;13.658;2023-07-24T23:33:15;3.70;;;2.22;;
64291;SDS011;50628;51.008;13.658;2023-07-24T23:38:18;7.20;;;2.53;;
64291;SDS011;50628;51.008;13.658;2023-07-24T23:43:20;2.72;;;1.98;;
64291;SDS011;50628;51.008;13.658;2023-07-24T23:48:22;5.70;;;2.35;;
64291;SDS011;50628;51.008;13.658;2023-07-24T23:53:25;2.30;;;1.85;;
64291;SDS011;50628;51.008;13.658;2023-07-24T23:58:27;2.50;;;2.00;;
